Time;durP1;ratioP1;P1;durP2;ratioP2;P2;SDS_P1;SDS_P2;PMS_P1;PMS_P2;Temp;Humidity;BMP_temperature;BMP_pressure;BME280_temperature;BME280_humidity;BME280_pressure;Samples;Min_cycle;Max_cycle;Signal;HPM_P1;HPM_P2
2021/08/05 00:00:10;;;;;;;3.47;3.17;;;;;;;14.64;75.99;101334.19;5005262;28;20464;-80
2021/08/05 00:02:56;;;;;;;3.10;2.90;;;;;;;14.86;75.54;101363.59;4995072;28;20465;-80
2021/08/05 00:05:33;;;;;;;4.50;3.50;;;;;;;14.66;75.84;101361.78;4993905;28;20433;-79
2021/08/05 00:11:24;;;;;;;4.80;3.10;;;;;;;14.67;76.46;101363.47;4999580;28;20459;-80
2021/08/05 00:17:19;;;;;;;3.27;3.07;;;;;;;14.82;75.46;101356.97;4997925;28;20444;-79
2021/08/05 00:19:51;;;;;;;6.90;3.37;;;;;;;14.56;75.57;101310.13;5012157;28;20452;-80
2021/08/05 00:22:24;;;;;;;3.60;3.30;;;;;;;14.40;75.79;101316.78;4994908;28;20473;-80
2021/08/05 00:24:53;;;;;;;3.97;3.60;;;;;;;14.63;75.69;101354.13;5017911;28;20466;-81
2021/08/05 00:27:30;;;;;;;3.20;2.90;;;;;;;14.59;75.64;101343.97;5013395;28;20445;-80
2021/08/05 00:29:59;;;;;;;3.03;2.83;;;;;;;14.02;75.99;101241.97;5003366;28;20521;-80
2021/08/05 00:32:56;;;;;;;3.20;2.90;;;;;;;14.56;75.33;101315.53;4999168;28;20598;-80
2021/08/05 00:35:32;;;;;;;3.20;3.00;;;;;;;14.11;77.38;101298.41;4993763;28;20594;-81
2021/08/05 00:38:01;;;;;;;3.90;3.50;;;;;;;14.74;75.76;101336.44;5020323;28;20460;-80
2021/08/05 00:41:07;;;;;;;4.00;3.20;;;;;;;14.66;76.58;101334.78;5006061;28;20550;-80
2021/08/05 00:43:54;;;;;;;;;;;;;;;;;;;;;
2021/08/05 00:46:35;;;;;;;3.20;2.90;;;;;;;14.14;77.51;101271.81;4998872;28;20497;-81
2021/08/05 00:49:10;;;;;;;3.73;3.40;;;;;;;14.10;77.04;101259.00;4996909;28;20428;-79
2021/08/05 00:52:02;;;;;;;3.63;3.33;;;;;;;14.48;77.69;101321.94;5012335;28;20456;-79
2021/08/05 00:54:37;;;;;;;3.70;3.40;;;;;;;13.96;77.53;101247.41;4997441;28;20445;-79
2021/08/05 00:57:20;;;;;;;4.80;3.30;;;;;;;14.45;77.53;101319.69;5008018;28;20448;-81
2021/08/05 01:00:01;;;;;;;3.70;3.40;;;;;;;14.36;77.09;101293.97;5005923;28;20461;-80
2021/08/05 01:03:06;;;;;;;5.43;3.87;;;;;;;14.54;77.11;101323.00;4999017;28;20483;-83
2021/08/05 01:06:15;;;;;;;3.27;2.97;;;;;;;13.69;78.74;101233.16;4996224;28;20470;-80
2021/08/05 01:16:09;;;;;;;4.13;3.80;;;;;;;14.31;78.20;101301.06;4954023;29;20434;-80
2021/08/05 01:18:43;;;;;;;3.50;3.20;;;;;;;14.45;77.90;101308.88;4944190;29;20439;-80
2021/08/05 01:21:23;;;;;;;3.70;3.37;;;;;;;14.21;78.82;101305.03;4946269;29;20466;-82
2021/08/05 01:24:06;;;;;;;5.53;3.40;;;;;;;14.07;78.88;101289.91;4984655;28;20439;-80
2021/08/05 01:26:31;;;;;;;4.50;4.13;;;;;;;14.12;79.14;101287.41;5000492;28;20433;-80
2021/08/05 01:29:07;;;;;;;5.73;5.20;;;;;;;14.19;78.96;101312.50;5001022;28;20466;-80
2021/08/05 01:31:43;;;;;;;8.00;6.20;;;;;;;14.14;79.60;101287.19;4996749;28;20201;-80
2021/08/05 01:34:31;;;;;;;4.87;4.10;;;;;;;13.89;78.16;101188.09;4998054;28;20456;-80
2021/08/05 01:40:17;;;;;;;6.17;5.63;;;;;;;13.60;79.63;101185.88;4997450;28;20452;-80
2021/08/05 01:43:15;;;;;;;10.50;8.07;;;;;;;13.64;79.23;101162.88;5016152;28;20457;-82
2021/08/05 01:46:05;;;;;;;7.90;7.00;;;;;;;14.23;79.43;101283.22;5001125;28;20429;-79
2021/08/05 01:49:01;;;;;;;20.87;18.60;;;;;;;14.28;79.57;101278.00;4996975;28;20429;-80
2021/08/05 01:52:07;;;;;;;7.73;7.03;;;;;;;14.11;79.71;101284.91;5000479;28;20572;-79
2021/08/05 01:54:37;;;;;;;23.50;21.00;;;;;;;14.10;79.92;101278.69;4995679;28;20437;-79
2021/08/05 01:57:13;;;;;;;8.13;7.47;;;;;;;13.77;80.36;101238.31;4998066;28;20451;-78
2021/08/05 01:59:44;;;;;;;20.43;13.40;;;;;;;13.84;79.20;101227.53;5012196;28;20456;-80
2021/08/05 02:02:16;;;;;;;29.93;23.27;;;;;;;13.82;79.51;101237.69;5004082;28;20445;-79
2021/08/05 02:05:30;;;;;;;12.13;9.67;;;;;;;13.90;80.11;101267.13;5010874;28;20426;-80
2021/08/05 02:08:09;;;;;;;7.47;6.77;;;;;;;13.27;79.99;101159.81;4985653;28;20451;-80
2021/08/05 02:10:43;;;;;;;8.57;7.03;;;;;;;14.04;79.23;101273.31;4992455;28;20452;-79
2021/08/05 02:13:28;;;;;;;10.23;9.27;;;;;;;13.12;78.12;101095.34;4996600;28;20491;-79
2021/08/05 02:16:15;;;;;;;6.23;5.73;;;;;;;13.88;78.67;101244.91;4997344;28;20421;-80
2021/08/05 02:18:51;;;;;;;13.70;12.47;;;;;;;13.25;78.76;101151.06;5004316;28;20437;-79
2021/08/05 02:21:32;;;;;;;9.00;8.17;;;;;;;13.97;79.48;101268.78;4994599;28;20827;-83
2021/08/05 02:24:03;;;;;;;11.07;9.83;;;;;;;13.70;79.66;101265.28;5009426;28;20440;-80
2021/08/05 02:26:50;;;;;;;7.07;5.70;;;;;;;14.04;78.53;101260.66;5001068;28;20430;-80
2021/08/05 02:29:25;;;;;;;13.63;10.53;;;;;;;13.68;79.33;101224.25;5000235;28;20436;-80
2021/08/05 02:31:52;;;;;;;4.73;4.30;;;;;;;13.56;79.13;101209.72;5006991;28;20445;-79
2021/08/05 02:34:22;;;;;;;9.13;8.27;;;;;;;14.01;78.93;101255.69;5004984;28;20454;-83
2021/08/05 02:36:51;;;;;;;8.27;7.43;;;;;;;13.69;78.46;101215.09;5015947;28;20425;-80
2021/08/05 02:39:25;;;;;;;9.90;8.97;;;;;;;13.69;78.70;101196.22;5001882;28;20433;-82
2021/08/05 02:41:51;;;;;;;18.80;15.17;;;;;;;14.10;78.71;101243.63;4997948;28;20468;-79
2021/08/05 02:44:18;;;;;;;7.37;6.70;;;;;;;14.00;78.65;101244.09;4997057;28;20484;-79
2021/08/05 02:46:46;;;;;;;4.93;4.53;;;;;;;12.29;79.03;101024.97;4998115;28;20436;-79
2021/08/05 02:49:21;;;;;;;6.50;5.80;;;;;;;12.89;79.51;101118.16;4993707;28;20441;-80
2021/08/05 02:51:47;;;;;;;8.70;7.53;;;;;;;13.79;79.05;101263.19;4996336;28;20449;-79
2021/08/05 02:54:16;;;;;;;10.33;9.17;;;;;;;13.46;80.58;101252.44;5010061;28;20464;-82
2021/08/05 02:56:47;;;;;;;8.97;8.27;;;;;;;13.27;79.65;101179.47;4994797;28;20466;-79
2021/08/05 02:59:30;;;;;;;12.77;11.53;;;;;;;13.11;80.13;101144.88;5008861;28;20438;-78
2021/08/05 03:01:58;;;;;;;10.10;8.10;;;;;;;13.81;78.76;101230.63;4996012;28;20473;-79
2021/08/05 03:04:54;;;;;;;9.73;8.33;;;;;;;13.69;79.69;101252.03;4996895;28;20942;-79
2021/08/05 03:07:25;;;;;;;11.87;8.87;;;;;;;13.59;79.45;101233.56;4996194;28;20543;-80
2021/08/05 03:09:51;;;;;;;10.43;9.53;;;;;;;12.53;79.62;101048.59;5011088;28;20437;-80
2021/08/05 03:12:19;;;;;;;6.57;6.03;;;;;;;13.70;79.15;101203.28;4996102;28;20433;-81
2021/08/05 03:14:57;;;;;;;13.93;12.13;;;;;;;13.43;79.02;101147.78;4997998;28;20449;-80
2021/08/05 03:17:23;;;;;;;8.47;7.40;;;;;;;13.76;79.62;101236.66;4997614;28;20444;-80
2021/08/05 03:19:49;;;;;;;8.17;7.57;;;;;;;13.72;79.22;101244.34;4997169;28;20436;-80
2021/08/05 03:22:27;;;;;;;8.60;7.77;;;;;;;12.64;82.61;101141.31;4998775;28;20516;-79
2021/08/05 03:24:58;;;;;;;27.97;21.03;;;;;;;12.74;82.76;101174.06;4995984;28;20209;-80
2021/08/05 03:27:30;;;;;;;30.47;24.47;;;;;;;13.50;81.40;101230.25;4996145;28;20468;-80
2021/08/05 03:29:56;;;;;;;10.93;9.57;;;;;;;12.99;79.62;101115.06;5010196;28;20465;-80
2021/08/05 03:32:22;;;;;;;7.50;6.80;;;;;;;13.54;79.46;101231.50;5008525;28;20512;-79
2021/08/05 03:34:47;;;;;;;7.60;6.97;;;;;;;12.88;79.63;101118.38;4996138;28;20440;-79
2021/08/05 03:37:13;;;;;;;7.40;6.67;;;;;;;12.98;79.14;101109.88;4994384;28;20193;-81
2021/08/05 03:39:41;;;;;;;7.77;7.07;;;;;;;13.59;78.84;101222.78;4998232;28;20190;-80
2021/08/05 03:42:07;;;;;;;9.37;8.23;;;;;;;13.42;79.67;101235.03;5009655;28;20237;-79
2021/08/05 03:44:35;;;;;;;8.37;7.33;;;;;;;13.12;78.63;101123.09;5012885;28;20438;-80
2021/08/05 03:47:01;;;;;;;8.20;7.47;;;;;;;12.75;78.70;101094.13;4997187;28;20182;-81
2021/08/05 03:49:26;;;;;;;5.33;4.83;;;;;;;12.91;78.71;101092.91;4998557;28;20437;-79
2021/08/05 03:51:52;;;;;;;8.27;7.23;;;;;;;12.80;79.23;101056.66;4997552;28;20201;-80
2021/08/05 03:54:18;;;;;;;9.60;7.37;;;;;;;12.63;79.53;101078.59;4998738;28;20228;-80
2021/08/05 03:56:43;;;;;;;5.97;5.47;;;;;;;13.53;79.06;101229.84;5015795;28;20202;-79
2021/08/05 03:59:09;;;;;;;7.37;5.90;;;;;;;13.53;78.72;101212.84;5003409;28;20201;-79
2021/08/05 04:01:40;;;;;;;4.67;4.27;;;;;;;13.07;78.66;101133.66;4996742;28;20367;-79
2021/08/05 04:04:08;;;;;;;7.23;6.50;;;;;;;12.99;78.04;101104.28;5013437;28;20437;-80
2021/08/05 04:06:34;;;;;;;5.90;5.37;;;;;;;13.25;78.35;101186.09;4996704;28;20437;-79
2021/08/05 04:09:09;;;;;;;8.30;7.60;;;;;;;13.12;78.50;101157.31;4994455;28;20505;-79
2021/08/05 04:11:38;;;;;;;4.63;4.23;;;;;;;12.76;79.19;101117.34;4998163;28;20559;-79
2021/08/05 04:14:03;;;;;;;5.90;5.37;;;;;;;12.70;79.29;101118.13;5012753;28;20441;-78
2021/08/05 04:16:32;;;;;;;5.27;4.83;;;;;;;12.52;79.77;101099.91;4997641;28;20444;-78
2021/08/05 04:18:57;;;;;;;5.10;4.67;;;;;;;13.39;79.15;101209.31;4999000;28;20200;-81
2021/08/05 04:21:29;;;;;;;5.20;4.80;;;;;;;12.42;79.30;101043.81;5006724;28;20512;-79
2021/08/05 04:23:57;;;;;;;5.23;4.73;;;;;;;12.86;79.97;101117.75;4995641;28;20182;-79
2021/08/05 04:26:23;;;;;;;5.53;5.07;;;;;;;13.41;80.64;101222.59;4997549;28;20449;-79
2021/08/05 04:28:49;;;;;;;6.67;5.93;;;;;;;12.60;80.50;101078.19;4997103;28;20511;-79
2021/08/05 04:31:15;;;;;;;8.17;7.43;;;;;;;13.05;81.85;101183.41;4998489;28;20209;-78
2021/08/05 04:33:40;;;;;;;11.90;10.13;;;;;;;12.73;81.25;101088.97;4996346;28;20440;-79
2021/08/05 04:36:06;;;;;;;25.00;20.27;;;;;;;13.50;80.91;101214.06;4995216;28;20277;-79
2021/08/05 04:38:34;;;;;;;6.70;6.10;;;;;;;13.57;81.00;101231.09;4996361;28;20193;-81
2021/08/05 04:41:03;;;;;;;24.13;18.93;;;;;;;13.52;80.23;101190.44;5011724;28;20202;-79
2021/08/05 04:43:34;;;;;;;12.13;10.93;;;;;;;13.55;80.27;101203.50;4993766;28;20458;-79
2021/08/05 04:46:08;;;;;;;13.93;10.43;;;;;;;12.59;80.84;101096.19;4994735;28;20429;-79
2021/08/05 04:48:36;;;;;;;8.40;7.70;;;;;;;12.88;79.78;101108.44;4996139;28;20487;-79
2021/08/05 04:51:05;;;;;;;14.30;11.90;;;;;;;13.15;79.22;101103.00;4995230;28;20460;-79
2021/08/05 04:53:33;;;;;;;12.50;11.33;;;;;;;13.17;80.05;101114.41;4995548;28;20433;-79
2021/08/05 04:56:02;;;;;;;9.93;9.10;;;;;;;13.78;80.20;101199.53;4994681;28;20442;-78
2021/08/05 04:58:28;;;;;;;29.90;21.07;;;;;;;12.79;81.09;101037.00;4997101;28;20523;-79
2021/08/05 05:00:56;;;;;;;32.53;25.17;;;;;;;14.04;80.04;101201.31;4997193;28;20464;-79
2021/08/05 05:03:22;;;;;;;30.50;26.40;;;;;;;12.86;80.31;101039.66;4995289;28;20469;-79
2021/08/05 05:05:48;;;;;;;52.47;36.53;;;;;;;13.67;80.85;101174.03;5011495;28;20442;-79
2021/08/05 05:08:36;;;;;;;26.53;22.87;;;;;;;13.71;82.03;101169.06;4995720;28;20181;-80
2021/08/05 05:11:01;;;;;;;56.30;40.03;;;;;;;13.38;81.00;101086.44;4993834;28;20234;-78
2021/08/05 05:13:30;;;;;;;57.87;38.43;;;;;;;13.41;80.42;101064.44;4996229;28;20441;-79
2021/08/05 05:16:01;;;;;;;14.73;13.13;;;;;;;13.59;81.18;101139.22;4996251;28;20185;-78
2021/08/05 05:18:27;;;;;;;98.33;68.07;;;;;;;13.66;81.84;101107.69;5012372;28;20468;-78
2021/08/05 05:20:53;;;;;;;124.10;79.23;;;;;;;14.27;81.31;101173.84;4999271;28;20841;-80
2021/08/05 05:23:20;;;;;;;145.03;100.80;;;;;;;14.22;80.98;101166.38;5001610;28;20230;-78
2021/08/05 05:25:46;;;;;;;85.03;56.93;;;;;;;13.82;81.44;101129.84;5010724;28;20533;-77
2021/08/05 05:28:15;;;;;;;84.40;61.97;;;;;;;13.84;81.94;101100.78;4997913;28;20449;-81
2021/08/05 05:30:59;;;;;;;165.53;100.73;;;;;;;13.79;82.01;101082.56;4994782;28;20464;-78
2021/08/05 05:33:25;;;;;;;73.87;49.87;;;;;;;13.78;81.96;101115.97;5008299;28;20445;-79
2021/08/05 05:35:54;;;;;;;135.80;83.43;;;;;;;13.70;83.32;101095.44;4996431;28;20448;-78
2021/08/05 05:38:22;;;;;;;117.20;87.60;;;;;;;14.18;83.40;101177.84;4994788;28;20853;-80
2021/08/05 05:40:49;;;;;;;96.30;66.73;;;;;;;14.25;83.59;101178.63;4999809;28;20528;-78
2021/08/05 05:43:15;;;;;;;91.37;70.90;;;;;;;14.14;83.19;101155.81;4995237;28;20529;-79
2021/08/05 05:45:41;;;;;;;154.90;100.33;;;;;;;14.49;83.37;101174.31;4996792;28;20448;-79
2021/08/05 05:48:09;;;;;;;177.07;113.23;;;;;;;14.24;82.07;101107.66;5010174;28;20440;-79
2021/08/05 05:50:46;;;;;;;139.03;88.13;;;;;;;14.29;82.24;101109.69;4995143;28;20554;-79
2021/08/05 05:53:17;;;;;;;177.00;97.73;;;;;;;14.71;82.76;101174.03;5000455;28;20416;-80
2021/08/05 05:55:52;;;;;;;103.03;74.60;;;;;;;14.11;82.43;101040.28;5002306;28;20429;-79
2021/08/05 05:58:44;;;;;;;225.20;142.90;;;;;;;14.59;82.58;101112.63;5004592;28;20440;-82
2021/08/05 06:01:58;;;;;;;269.43;166.87;;;;;;;15.08;82.25;101161.50;4993046;28;20534;-80
2021/08/05 06:04:48;;;;;;;128.10;81.47;;;;;;;14.49;81.65;101055.56;4977615;28;20456;-80
2021/08/05 06:07:19;;;;;;;210.70;147.97;;;;;;;14.40;82.31;101059.59;4998451;28;20432;-79
2021/08/05 06:09:48;;;;;;;266.73;173.03;;;;;;;14.87;82.33;101124.91;5014950;28;20472;-80
2021/08/05 06:12:14;;;;;;;312.67;205.80;;;;;;;14.65;82.25;101049.66;4996026;28;20464;-80
2021/08/05 06:15:07;;;;;;;;;;;;;;;;;;;;;
2021/08/05 06:17:47;;;;;;;324.60;207.47;;;;;;;15.52;82.03;101170.44;4997051;28;20464;-80
2021/08/05 06:20:36;;;;;;;314.10;214.20;;;;;;;15.64;81.85;101170.53;5011794;28;20472;-79
2021/08/05 06:23:03;;;;;;;346.03;230.63;;;;;;;15.17;82.77;101098.03;5010753;28;20461;-77
2021/08/05 06:25:29;;;;;;;392.70;255.67;;;;;;;15.69;82.47;101166.13;5006488;28;20499;-80
2021/08/05 06:27:54;;;;;;;377.87;261.00;;;;;;;15.72;82.34;101160.28;5000735;28;20453;-80
2021/08/05 06:30:23;;;;;;;490.03;339.70;;;;;;;15.60;82.41;101133.13;5016299;28;20189;-80
2021/08/05 06:32:50;;;;;;;480.60;334.40;;;;;;;15.80;82.53;101175.41;5000485;28;20183;-80
2021/08/05 06:35:19;;;;;;;459.97;315.03;;;;;;;15.99;82.34;101170.78;5010145;28;20523;-80
2021/08/05 06:37:56;;;;;;;411.47;286.47;;;;;;;15.53;81.47;101094.50;5000049;28;20945;-80
2021/08/05 06:40:25;;;;;;;433.23;266.67;;;;;;;16.01;81.69;101164.09;4999191;28;20461;-81
2021/08/05 06:42:51;;;;;;;363.00;239.53;;;;;;;15.69;81.59;101101.25;5015059;28;20833;-79
2021/08/05 06:45:19;;;;;;;405.33;282.27;;;;;;;16.16;81.68;101176.41;4995124;28;20436;-81
2021/08/05 06:47:50;;;;;;;466.80;319.13;;;;;;;15.87;81.96;101113.09;5005356;28;20492;-79
2021/08/05 06:50:19;;;;;;;300.90;190.17;;;;;;;15.61;81.09;101042.03;4995883;28;20472;-79
2021/08/05 06:52:47;;;;;;;332.13;222.27;;;;;;;16.31;82.01;101157.88;4999711;28;20414;-80
2021/08/05 06:55:18;;;;;;;402.27;264.90;;;;;;;16.11;81.71;101127.56;5012414;28;20429;-81
2021/08/05 06:57:46;;;;;;;480.97;314.93;;;;;;;16.39;81.63;101168.41;4991951;28;20555;-79
2021/08/05 07:00:15;;;;;;;424.20;289.03;;;;;;;16.34;82.19;101160.13;4997146;28;20454;-80
2021/08/05 07:02:46;;;;;;;510.67;371.80;;;;;;;16.47;81.56;101168.09;5014644;28;20465;-81
2021/08/05 07:05:15;;;;;;;536.17;363.70;;;;;;;16.55;80.80;101168.81;5004060;28;20851;-81
2021/08/05 07:07:44;;;;;;;545.73;390.03;;;;;;;16.43;80.87;101120.88;5005225;28;20434;-81
2021/08/05 07:10:16;;;;;;;511.73;351.60;;;;;;;16.45;81.12;101112.50;5014686;28;20472;-81
2021/08/05 07:12:50;;;;;;;512.23;357.43;;;;;;;16.38;80.77;101107.19;5002119;28;20430;-80
2021/08/05 07:15:22;;;;;;;570.03;406.63;;;;;;;16.83;80.64;101149.25;4994012;28;20508;-80
2021/08/05 07:17:47;;;;;;;519.37;347.43;;;;;;;16.09;81.24;101038.50;5001624;28;20436;-79
2021/08/05 07:20:15;;;;;;;469.07;336.70;;;;;;;16.79;80.09;101124.50;5013421;28;20832;-79
2021/08/05 07:22:46;;;;;;;463.53;329.57;;;;;;;16.22;79.79;101018.53;5011308;28;20228;-80
2021/08/05 07:25:13;;;;;;;528.33;392.93;;;;;;;16.65;80.28;101087.84;5001494;28;20441;-80
2021/08/05 07:27:47;;;;;;;516.70;387.90;;;;;;;16.53;79.18;101052.63;4998516;28;20960;-79
2021/08/05 07:30:15;;;;;;;446.40;302.87;;;;;;;16.70;78.43;101060.88;4996369;28;20460;-79
2021/08/05 07:32:41;;;;;;;449.33;301.47;;;;;;;16.87;77.91;101047.50;4996294;28;20438;-80
2021/08/05 07:35:08;;;;;;;457.47;313.17;;;;;;;16.77;77.75;101022.88;5010856;28;20452;-79
2021/08/05 07:37:33;;;;;;;475.60;327.77;;;;;;;17.43;77.49;101129.25;5001218;28;20437;-80
2021/08/05 07:39:59;;;;;;;458.93;318.10;;;;;;;17.69;77.63;101142.31;5000008;28;20487;-80
2021/08/05 07:42:25;;;;;;;522.97;382.77;;;;;;;16.87;77.04;101009.56;5013560;28;20202;-79
2021/08/05 07:44:52;;;;;;;500.30;335.83;;;;;;;17.74;77.01;101138.88;4996683;28;20174;-82
2021/08/05 07:47:18;;;;;;;446.83;326.17;;;;;;;16.62;76.67;100982.69;4996451;28;20493;-80
2021/08/05 07:49:46;;;;;;;452.40;332.43;;;;;;;16.91;76.48;101011.56;4996336;28;20445;-80
2021/08/05 07:52:11;;;;;;;457.43;314.70;;;;;;;17.76;77.01;101134.88;5001354;28;20436;-80
2021/08/05 07:54:43;;;;;;;419.97;300.30;;;;;;;17.90;76.14;101137.34;5008327;28;20439;-80
2021/08/05 07:57:12;;;;;;;377.63;238.70;;;;;;;17.86;76.31;101133.47;4997270;28;20245;-81
2021/08/05 07:59:47;;;;;;;370.00;251.93;;;;;;;17.54;75.84;101083.13;5009756;28;20433;-80
2021/08/05 08:02:13;;;;;;;390.53;258.77;;;;;;;17.88;74.94;101137.59;4997382;28;20756;-80
2021/08/05 08:04:39;;;;;;;293.47;193.10;;;;;;;17.11;74.88;100997.63;4995233;28;20436;-80
2021/08/05 08:07:04;;;;;;;271.03;187.10;;;;;;;16.95;75.39;100949.59;4996002;28;20189;-80
2021/08/05 08:09:30;;;;;;;352.10;231.70;;;;;;;17.63;74.49;101057.28;4993577;28;20181;-80
2021/08/05 08:11:56;;;;;;;296.53;199.83;;;;;;;18.00;74.59;101113.94;4993663;28;20205;-80
2021/08/05 08:14:22;;;;;;;236.67;158.77;;;;;;;17.48;74.36;101029.03;4995448;28;20962;-81
2021/08/05 08:16:48;;;;;;;292.97;186.27;;;;;;;18.15;74.43;101120.75;4993724;28;20441;-80
2021/08/05 08:19:13;;;;;;;336.57;218.07;;;;;;;17.68;73.90;101039.47;4989242;28;22743;-80
2021/08/05 08:21:39;;;;;;;303.17;179.97;;;;;;;17.12;73.46;100983.00;4993714;28;20476;-81
2021/08/05 08:24:05;;;;;;;321.40;223.07;;;;;;;18.21;74.15;101127.91;5000214;28;20218;-83
2021/08/05 08:26:30;;;;;;;289.70;201.23;;;;;;;17.87;74.42;101069.97;4980891;28;20197;-81
2021/08/05 08:28:56;;;;;;;283.27;192.17;;;;;;;17.42;73.37;100997.47;4993692;28;20190;-81
2021/08/05 08:31:27;;;;;;;281.30;179.03;;;;;;;17.36;73.54;101000.06;4992911;28;20663;-80
2021/08/05 08:33:53;;;;;;;242.30;150.53;;;;;;;17.68;73.50;101063.91;4993890;28;20177;-82
2021/08/05 08:36:18;;;;;;;243.07;165.20;;;;;;;17.74;73.36;101065.66;5001163;28;20501;-80
2021/08/05 08:38:44;;;;;;;352.90;240.67;;;;;;;16.89;72.84;100901.78;4994295;28;20186;-80
2021/08/05 08:41:12;;;;;;;206.33;137.20;;;;;;;17.88;72.69;101048.06;5001646;28;20240;-80
2021/08/05 08:43:37;;;;;;;196.50;121.87;;;;;;;18.23;72.32;101090.50;4995459;28;20321;-80
2021/08/05 08:46:03;;;;;;;249.40;157.83;;;;;;;18.44;72.44;101111.50;4993693;28;20507;-80
2021/08/05 08:48:30;;;;;;;242.60;146.70;;;;;;;16.82;72.83;100887.56;5000373;28;20225;-80
2021/08/05 08:51:02;;;;;;;274.33;177.17;;;;;;;18.55;72.84;101117.13;4995945;28;20221;-80
2021/08/05 08:53:33;;;;;;;305.07;198.00;;;;;;;18.16;72.82;101040.94;4990343;28;20548;-80
2021/08/05 08:58:28;;;;;;;250.07;163.17;;;;;;;18.62;72.65;101102.31;5075421;28;20544;-78
2021/08/05 09:00:54;;;;;;;218.87;145.40;;;;;;;18.19;72.16;101030.41;5071422;28;20463;-78
2021/08/05 09:03:20;;;;;;;231.33;148.43;;;;;;;18.31;72.45;101035.78;5076438;28;20527;-78
2021/08/05 09:05:47;;;;;;;278.90;191.67;;;;;;;18.25;72.85;101044.91;5074091;28;20576;-78
2021/08/05 09:08:12;;;;;;;220.93;133.20;;;;;;;17.35;71.99;100889.94;5070227;28;20425;-79
2021/08/05 09:10:37;;;;;;;262.13;180.57;;;;;;;18.43;71.73;101035.72;5075952;28;20833;-78
2021/08/05 09:13:05;;;;;;;258.40;168.70;;;;;;;18.47;71.63;101032.25;5075807;28;20186;-78
2021/08/05 09:15:40;;;;;;;174.17;111.07;;;;;;;18.87;71.54;101085.63;5072558;28;20210;-78
2021/08/05 09:18:24;;;;;;;241.03;152.37;;;;;;;18.90;71.19;101090.56;5058525;28;20455;-79
2021/08/05 09:21:22;;;;;;;256.97;157.37;;;;;;;19.01;71.17;101077.16;5071562;28;20494;-78
2021/08/05 09:23:50;;;;;;;277.90;174.87;;;;;;;19.12;71.68;101073.47;5075050;28;20420;-79
2021/08/05 09:26:27;;;;;;;261.63;157.17;;;;;;;19.16;70.89;101075.47;5076912;28;20433;-79
2021/08/05 09:29:22;;;;;;;249.60;150.97;;;;;;;19.32;70.65;101079.22;5069807;28;20440;-79
2021/08/05 09:32:00;;;;;;;127.87;89.03;;;;;;;19.12;69.79;101043.56;5073575;28;20465;-79
2021/08/05 09:34:33;;;;;;;163.13;103.50;;;;;;;19.27;69.95;101056.59;5075670;28;20441;-78
2021/08/05 09:37:00;;;;;;;182.53;117.43;;;;;;;19.45;71.14;101064.44;5074379;28;20457;-79
2021/08/05 09:39:29;;;;;;;253.93;173.27;;;;;;;19.71;69.20;101057.44;5076232;28;20445;-78
2021/08/05 09:42:01;;;;;;;204.57;144.33;;;;;;;19.38;69.28;100999.34;5072509;28;20496;-78
2021/08/05 09:44:49;;;;;;;120.57;88.10;;;;;;;19.62;69.19;101037.97;5074847;28;20434;-78
2021/08/05 09:47:16;;;;;;;256.83;172.27;;;;;;;19.92;68.85;101058.47;5081166;28;20425;-79
2021/08/05 09:49:47;;;;;;;173.60;104.07;;;;;;;19.85;68.84;101061.41;5075016;28;20437;-78
2021/08/05 09:52:14;;;;;;;222.10;143.27;;;;;;;19.78;68.59;101058.06;5074906;28;20432;-78
2021/08/05 09:54:41;;;;;;;152.57;104.53;;;;;;;19.92;69.17;101055.75;5075175;28;20432;-78
2021/08/05 09:57:07;;;;;;;262.87;173.97;;;;;;;20.02;69.28;101052.34;5078612;28;20557;-79
2021/08/05 09:59:50;;;;;;;287.00;170.77;;;;;;;20.20;69.67;101056.59;5078139;28;20966;-79
2021/08/05 10:02:16;;;;;;;242.07;162.07;;;;;;;19.52;66.98;100942.63;5071278;28;20555;-78
2021/08/05 10:04:44;;;;;;;280.83;178.30;;;;;;;19.55;66.95;100898.59;5070039;28;21008;-78
2021/08/05 10:07:10;;;;;;;209.97;138.53;;;;;;;20.13;66.80;100971.56;5077708;28;20683;-78
2021/08/05 10:09:37;;;;;;;32.73;24.80;;;;;;;20.01;64.45;100967.09;5065101;28;20433;-79
2021/08/05 10:12:14;;;;;;;116.13;73.13;;;;;;;20.31;65.61;101031.91;5062440;28;20424;-79
2021/08/05 10:14:40;;;;;;;121.93;82.00;;;;;;;20.22;66.90;100984.47;5057112;28;20455;-78
2021/08/05 10:17:07;;;;;;;188.37;122.73;;;;;;;20.46;65.48;100993.09;5062442;28;20989;-78
2021/08/05 10:19:42;;;;;;;191.40;119.10;;;;;;;20.65;64.50;101025.41;5058320;28;20968;-79
2021/08/05 10:22:10;;;;;;;76.53;46.73;;;;;;;20.47;63.08;100964.75;5076439;28;20528;-78
2021/08/05 10:24:38;;;;;;;118.27;78.40;;;;;;;20.73;65.18;100992.22;5061117;28;20462;-78
2021/08/05 10:27:08;;;;;;;109.73;69.93;;;;;;;21.12;64.95;101021.91;5060096;28;20414;-78
2021/08/05 10:29:35;;;;;;;114.13;77.07;;;;;;;20.56;64.69;100956.13;5070782;28;20461;-78
2021/08/05 10:32:03;;;;;;;80.13;48.53;;;;;;;20.63;64.17;100986.69;5056685;28;20465;-79
2021/08/05 10:34:33;;;;;;;43.57;30.23;;;;;;;20.24;63.36;100949.59;5046152;28;20463;-79
2021/08/05 10:37:00;;;;;;;75.10;56.53;;;;;;;20.69;66.07;101012.91;5043881;28;20549;-79
2021/08/05 10:39:27;;;;;;;133.13;75.43;;;;;;;19.96;66.08;100890.00;5076619;28;20435;-78
2021/08/05 10:41:52;;;;;;;146.97;92.93;;;;;;;20.02;65.30;100914.31;5057421;28;20450;-78
2021/08/05 10:44:18;;;;;;;132.67;87.70;;;;;;;20.20;65.80;100926.69;5061542;28;20437;-78
2021/08/05 10:46:45;;;;;;;226.40;141.83;;;;;;;20.33;66.76;100958.91;5055189;28;20183;-78
2021/08/05 10:49:12;;;;;;;170.17;106.83;;;;;;;20.32;66.56;100972.81;5058990;28;20441;-78
2021/08/05 10:51:41;;;;;;;176.57;114.87;;;;;;;19.92;66.32;100887.00;5051756;28;20561;-78
2021/08/05 10:54:07;;;;;;;173.87;114.43;;;;;;;20.88;64.25;100988.75;5053968;28;20438;-77
2021/08/05 10:56:33;;;;;;;164.20;108.57;;;;;;;20.93;65.14;100983.34;5056749;28;20549;-78
2021/08/05 10:59:12;;;;;;;189.87;113.77;;;;;;;20.94;66.19;100982.22;5060931;28;20525;-78
2021/08/05 11:01:40;;;;;;;98.63;63.57;;;;;;;21.25;63.37;100977.75;5053889;28;20299;-79
2021/08/05 11:04:06;;;;;;;90.00;62.53;;;;;;;20.88;64.87;100918.69;5057051;28;20565;-78
2021/08/05 11:06:33;;;;;;;153.50;106.23;;;;;;;21.25;64.56;100977.75;5052852;28;20545;-78
2021/08/05 11:09:25;;;;;;;83.13;57.07;;;;;;;21.29;63.21;100975.31;5056671;28;20550;-79
2021/08/05 11:11:51;;;;;;;24.43;17.33;;;;;;;20.93;62.43;100951.44;5058524;28;20450;-79
2021/08/05 11:14:16;;;;;;;83.53;57.10;;;;;;;21.26;64.86;100975.84;5057295;28;20442;-78
2021/08/05 11:16:50;;;;;;;188.07;126.00;;;;;;;21.49;63.46;100971.84;5060010;28;20202;-78
2021/08/05 11:19:34;;;;;;;95.37;57.90;;;;;;;21.66;62.76;100967.81;5059195;28;20183;-78
2021/08/05 11:22:28;;;;;;;102.07;70.20;;;;;;;21.58;61.56;100934.75;5060167;28;21013;-79
2021/08/05 11:24:54;;;;;;;25.87;18.93;;;;;;;21.04;60.35;100888.78;5059785;28;20425;-79
2021/08/05 11:27:22;;;;;;;55.10;39.93;;;;;;;21.75;61.00;100962.63;5057510;28;20669;-78
2021/08/05 11:29:48;;;;;;;45.03;29.50;;;;;;;21.42;56.97;100874.72;5061169;28;20183;-79
2021/08/05 11:32:26;;;;;;;4.17;3.80;;;;;;;21.91;55.03;100946.28;5057802;28;20488;-79
2021/08/05 11:35:05;;;;;;;14.80;10.87;;;;;;;20.68;56.49;100769.50;5057358;28;20469;-78
2021/08/05 11:37:32;;;;;;;5.93;5.37;;;;;;;21.13;57.46;100794.44;5058507;28;20535;-79
2021/08/05 11:40:00;;;;;;;11.83;10.00;;;;;;;22.01;59.03;100947.09;5053334;28;21102;-79
2021/08/05 11:42:27;;;;;;;10.73;9.37;;;;;;;22.18;59.18;100926.94;5057009;28;20469;-79
2021/08/05 11:44:59;;;;;;;16.10;11.97;;;;;;;22.28;60.35;100930.47;5060835;28;20488;-79
2021/08/05 11:47:28;;;;;;;42.33;26.93;;;;;;;21.61;60.53;100800.47;5054907;28;20440;-79
2021/08/05 11:50:02;;;;;;;6.40;5.77;;;;;;;22.45;56.13;100919.25;5055487;28;20445;-79